sensor_id;sensor_type;location;lat;lon;timestamp;pressure;altitude;pressure_sealevel;temperature;humidity
17764;BME280;22245;52.832;13.816;2023-06-10T00:00:24;101530.25;;;16.89;72.12
17764;BME280;22245;52.832;13.816;2023-06-10T00:03:46;101528.72;;;16.87;72.46
17764;BME280;22245;52.832;13.816;2023-06-10T00:07:08;101528.00;;;16.85;72.48
17764;BME280;22245;52.832;13.816;2023-06-10T00:10:29;101530.00;;;16.83;72.21
17764;BME280;22245;52.832;13.816;2023-06-10T00:13:51;101533.69;;;16.82;72.19
17764;BME280;22245;52.832;13.816;2023-06-10T00:17:14;101525.78;;;16.80;72.29
17764;BME280;22245;52.832;13.816;2023-06-10T00:20:36;101528.63;;;16.78;72.71
17764;BME280;22245;52.832;13.816;2023-06-10T00:23:59;101528.94;;;16.75;72.58
17764;BME280;22245;52.832;13.816;2023-06-10T00:27:24;101522.03;;;16.73;72.48
17764;BME280;22245;52.832;13.816;2023-06-10T00:30:52;101529.41;;;16.71;72.47
17764;BME280;22245;52.832;13.816;2023-06-10T00:34:15;101525.16;;;16.68;72.65
17764;BME280;22245;52.832;13.816;2023-06-10T00:37:37;101517.41;;;16.65;72.63
17764;BME280;22245;52.832;13.816;2023-06-10T00:40:58;101521.53;;;16.59;73.18
17764;BME280;22245;52.832;13.816;2023-06-10T00:44:20;101521.84;;;16.56;73.32
17764;BME280;22245;52.832;13.816;2023-06-10T00:47:42;101514.94;;;16.54;73.65
17764;BME280;22245;52.832;13.816;2023-06-10T00:51:05;101525.84;;;16.52;73.25
17764;BME280;22245;52.832;13.816;2023-06-10T00:54:29;101517.25;;;16.48;73.40
17764;BME280;22245;52.832;13.816;2023-06-10T00:57:51;101514.81;;;16.45;73.66
17764;BME280;22245;52.832;13.816;2023-06-10T01:01:13;101523.19;;;16.42;73.51
17764;BME280;22245;52.832;13.816;2023-06-10T01:04:35;101527.06;;;16.40;74.02
17764;BME280;22245;52.832;13.816;2023-06-10T01:08:03;101525.50;;;16.37;73.71
17764;BME280;22245;52.832;13.816;2023-06-10T01:11:29;101532.03;;;16.34;73.92
17764;BME280;22245;52.832;13.816;2023-06-10T01:14:55;101523.28;;;16.32;73.86
17764;BME280;22245;52.832;13.816;2023-06-10T01:18:18;101532.59;;;16.28;74.26
17764;BME280;22245;52.832;13.816;2023-06-10T01:21:41;101529.22;;;16.26;73.95
17764;BME280;22245;52.832;13.816;2023-06-10T01:25:10;101540.28;;;16.23;74.35
17764;BME280;22245;52.832;13.816;2023-06-10T01:28:38;101530.69;;;16.20;74.28
17764;BME280;22245;52.832;13.816;2023-06-10T01:32:06;101536.38;;;16.17;74.59
17764;BME280;22245;52.832;13.816;2023-06-10T01:35:30;101541.16;;;16.14;74.55
17764;BME280;22245;52.832;13.816;2023-06-10T01:38:54;101549.66;;;16.09;74.55
17764;BME280;22245;52.832;13.816;2023-06-10T01:42:17;101540.06;;;16.06;74.81
17764;BME280;22245;52.832;13.816;2023-06-10T01:45:38;101536.81;;;16.03;74.79
17764;BME280;22245;52.832;13.816;2023-06-10T01:49:03;101531.91;;;15.98;74.83
17764;BME280;22245;52.832;13.816;2023-06-10T01:52:24;101533.91;;;15.96;75.68
17764;BME280;22245;52.832;13.816;2023-06-10T01:55:48;101535.91;;;15.94;75.24
17764;BME280;22245;52.832;13.816;2023-06-10T01:59:11;101536.19;;;15.91;75.20
17764;BME280;22245;52.832;13.816;2023-06-10T02:02:32;101547.06;;;15.89;75.36
17764;BME280;22245;52.832;13.816;2023-06-10T02:05:54;101544.50;;;15.88;75.49
17764;BME280;22245;52.832;13.816;2023-06-10T02:09:16;101548.16;;;15.87;75.55
17764;BME280;22245;52.832;13.816;2023-06-10T02:12:40;101546.34;;;15.87;75.39
17764;BME280;22245;52.832;13.816;2023-06-10T02:16:02;101551.84;;;15.86;75.51
17764;BME280;22245;52.832;13.816;2023-06-10T02:19:24;101552.84;;;15.85;75.68
17764;BME280;22245;52.832;13.816;2023-06-10T02:22:47;101550.16;;;15.85;75.24
17764;BME280;22245;52.832;13.816;2023-06-10T02:26:09;101559.38;;;15.82;75.59
17764;BME280;22245;52.832;13.816;2023-06-10T02:29:33;101550.44;;;15.82;75.80
17764;BME280;22245;52.832;13.816;2023-06-10T02:32:56;101556.97;;;15.79;75.84
17764;BME280;22245;52.832;13.816;2023-06-10T02:36:18;101558.78;;;15.78;75.77
17764;BME280;22245;52.832;13.816;2023-06-10T02:39:42;101562.47;;;15.77;75.41
17764;BME280;22245;52.832;13.816;2023-06-10T02:43:04;101550.75;;;15.78;76.04
17764;BME280;22245;52.832;13.816;2023-06-10T02:46:29;101549.03;;;15.77;75.25
17764;BME280;22245;52.832;13.816;2023-06-10T02:49:52;101549.03;;;15.77;75.69
17764;BME280;22245;52.832;13.816;2023-06-10T02:53:13;101552.88;;;15.75;76.03
17764;BME280;22245;52.832;13.816;2023-06-10T02:56:39;101555.69;;;15.73;75.22
17764;BME280;22245;52.832;13.816;2023-06-10T03:00:09;101552.31;;;15.71;75.45
17764;BME280;22245;52.832;13.816;2023-06-10T03:03:34;101553.31;;;15.70;75.46
17764;BME280;22245;52.832;13.816;2023-06-10T03:07:02;101554.31;;;15.69;75.99
17764;BME280;22245;52.832;13.816;2023-06-10T03:10:27;101559.66;;;15.69;75.98
17764;BME280;22245;52.832;13.816;2023-06-10T03:13:49;101554.31;;;15.69;75.88
17764;BME280;22245;52.832;13.816;2023-06-10T03:17:11;101557.00;;;15.69;75.44
17764;BME280;22245;52.832;13.816;2023-06-10T03:20:37;101566.72;;;15.70;75.75
17764;BME280;22245;52.832;13.816;2023-06-10T03:24:02;101561.38;;;15.70;75.35
17764;BME280;22245;52.832;13.816;2023-06-10T03:27:25;101552.44;;;15.70;75.78
17764;BME280;22245;52.832;13.816;2023-06-10T03:30:52;101558.69;;;15.70;75.00
17764;BME280;22245;52.832;13.816;2023-06-10T03:34:17;101557.69;;;15.71;75.02
17764;BME280;22245;52.832;13.816;2023-06-10T03:37:40;101549.63;;;15.71;74.88
17764;BME280;22245;52.832;13.816;2023-06-10T03:41:02;101559.94;;;15.76;75.36
17764;BME280;22245;52.832;13.816;2023-06-10T03:44:24;101563.47;;;15.76;75.35
17764;BME280;22245;52.832;13.816;2023-06-10T03:47:46;101565.03;;;15.79;75.17
17764;BME280;22245;52.832;13.816;2023-06-10T03:51:11;101570.25;;;15.81;74.82
17764;BME280;22245;52.832;13.816;2023-06-10T03:54:34;101566.72;;;15.80;74.87
17764;BME280;22245;52.832;13.816;2023-06-10T03:57:56;101568.41;;;15.81;74.38
17764;BME280;22245;52.832;13.816;2023-06-10T04:01:18;101572.78;;;15.82;74.83
17764;BME280;22245;52.832;13.816;2023-06-10T04:04:41;101570.94;;;15.83;74.95
17764;BME280;22245;52.832;13.816;2023-06-10T04:08:03;101573.50;;;15.84;74.67
17764;BME280;22245;52.832;13.816;2023-06-10T04:11:26;101571.63;;;15.85;74.64
17764;BME280;22245;52.832;13.816;2023-06-10T04:14:50;101574.31;;;15.85;74.06
17764;BME280;22245;52.832;13.816;2023-06-10T04:18:12;101583.06;;;15.87;73.97
17764;BME280;22245;52.832;13.816;2023-06-10T04:21:34;101577.44;;;15.90;73.91
17764;BME280;22245;52.832;13.816;2023-06-10T04:24:56;101587.94;;;15.93;74.12
17764;BME280;22245;52.832;13.816;2023-06-10T04:28:20;101585.78;;;15.97;73.65
17764;BME280;22245;52.832;13.816;2023-06-10T04:31:42;101587.34;;;15.99;73.85
17764;BME280;22245;52.832;13.816;2023-06-10T04:35:07;101583.38;;;16.03;73.45
17764;BME280;22245;52.832;13.816;2023-06-10T04:38:30;101589.44;;;16.05;73.18
17764;BME280;22245;52.832;13.816;2023-06-10T04:41:52;101591.81;;;16.09;73.15
17764;BME280;22245;52.832;13.816;2023-06-10T04:45:16;101593.22;;;16.13;73.10
17764;BME280;22245;52.832;13.816;2023-06-10T04:48:38;101593.22;;;16.13;73.14
17764;BME280;22245;52.832;13.816;2023-06-10T04:52:03;101602.69;;;16.17;72.43
17764;BME280;22245;52.832;13.816;2023-06-10T04:55:29;101606.78;;;16.21;72.34
17764;BME280;22245;52.832;13.816;2023-06-10T04:58:51;101606.47;;;16.24;72.56
17764;BME280;22245;52.832;13.816;2023-06-10T05:02:15;101605.34;;;16.27;71.94
17764;BME280;22245;52.832;13.816;2023-06-10T05:05:36;101612.28;;;16.29;71.87
17764;BME280;22245;52.832;13.816;2023-06-10T05:08:58;101612.13;;;16.31;71.91
17764;BME280;22245;52.832;13.816;2023-06-10T05:12:20;101608.28;;;16.33;71.11
17764;BME280;22245;52.832;13.816;2023-06-10T05:15:42;101616.19;;;16.35;71.32
17764;BME280;22245;52.832;13.816;2023-06-10T05:19:06;101616.91;;;16.37;71.22
17764;BME280;22245;52.832;13.816;2023-06-10T05:22:28;101620.16;;;16.41;71.39
17764;BME280;22245;52.832;13.816;2023-06-10T05:25:49;101616.59;;;16.40;70.64
17764;BME280;22245;52.832;13.816;2023-06-10T05:29:11;101619.28;;;16.40;70.79
17764;BME280;22245;52.832;13.816;2023-06-10T05:32:33;101626.22;;;16.43;71.08
17764;BME280;22245;52.832;13.816;2023-06-10T05:35:56;101634.97;;;16.45;70.37
17764;BME280;22245;52.832;13.816;2023-06-10T05:39:18;101624.94;;;16.47;70.66
17764;BME280;22245;52.832;13.816;2023-06-10T05:42:40;101621.38;;;16.46;70.50
17764;BME280;22245;52.832;13.816;2023-06-10T05:46:02;101627.63;;;16.47;70.33
17764;BME280;22245;52.832;13.816;2023-06-10T05:49:24;101620.94;;;16.51;70.20
17764;BME280;22245;52.832;13.816;2023-06-10T05:52:47;101629.56;;;16.55;70.63
17764;BME280;22245;52.832;13.816;2023-06-10T05:56:09;101624.88;;;16.57;70.76
17764;BME280;22245;52.832;13.816;2023-06-10T05:59:30;101624.59;;;16.60;70.66
17764;BME280;22245;52.832;13.816;2023-06-10T06:02:52;101624.81;;;16.67;70.40
17764;BME280;22245;52.832;13.816;2023-06-10T06:06:15;101625.25;;;16.72;70.56
17764;BME280;22245;52.832;13.816;2023-06-10T06:09:38;101633.41;;;16.80;70.25
17764;BME280;22245;52.832;13.816;2023-06-10T06:13:00;101630.78;;;16.88;69.97
17764;BME280;22245;52.832;13.816;2023-06-10T06:16:22;101634.88;;;16.92;69.22
17764;BME280;22245;52.832;13.816;2023-06-10T06:19:44;101631.19;;;16.93;68.95
17764;BME280;22245;52.832;13.816;2023-06-10T06:23:07;101647.19;;;16.95;68.68
17764;BME280;22245;52.832;13.816;2023-06-10T06:26:31;101651.44;;;16.98;68.75
17764;BME280;22245;52.832;13.816;2023-06-10T06:29:53;101655.97;;;16.97;69.06
17764;BME280;22245;52.832;13.816;2023-06-10T06:33:15;101654.13;;;16.98;69.25
17764;BME280;22245;52.832;13.816;2023-06-10T06:36:37;101661.06;;;17.00;68.79
17764;BME280;22245;52.832;13.816;2023-06-10T06:39:59;101661.59;;;17.04;68.63
17764;BME280;22245;52.832;13.816;2023-06-10T06:43:25;101657.94;;;17.05;68.45
17764;BME280;22245;52.832;13.816;2023-06-10T06:47:10;101670.09;;;17.09;68.82
17764;BME280;22245;52.832;13.816;2023-06-10T06:50:31;101668.91;;;17.12;68.66
17764;BME280;22245;52.832;13.816;2023-06-10T06:53:53;101680.25;;;17.15;69.02
17764;BME280;22245;52.832;13.816;2023-06-10T06:57:18;101689.16;;;17.16;69.09
17764;BME280;22245;52.832;13.816;2023-06-10T07:00:41;101688.16;;;17.17;69.09
17764;BME280;22245;52.832;13.816;2023-06-10T07:04:03;101683.31;;;17.20;69.24
17764;BME280;22245;52.832;13.816;2023-06-10T07:07:25;101683.00;;;17.24;69.25
17764;BME280;22245;52.832;13.816;2023-06-10T07:10:47;101686.78;;;17.31;69.31
17764;BME280;22245;52.832;13.816;2023-06-10T07:14:09;101687.16;;;17.36;69.38
17764;BME280;22245;52.832;13.816;2023-06-10T07:17:32;101692.94;;;17.41;69.21
17764;BME280;22245;52.832;13.816;2023-06-10T07:20:55;101701.56;;;17.45;69.07
17764;BME280;22245;52.832;13.816;2023-06-10T07:24:17;101700.25;;;17.49;69.24
17764;BME280;22245;52.832;13.816;2023-06-10T07:27:41;101700.63;;;17.54;69.30
17764;BME280;22245;52.832;13.816;2023-06-10T07:31:03;101705.72;;;17.57;69.39
17764;BME280;22245;52.832;13.816;2023-06-10T07:34:26;101704.41;;;17.61;68.80
17764;BME280;22245;52.832;13.816;2023-06-10T07:37:48;101718.13;;;17.68;68.59
17764;BME280;22245;52.832;13.816;2023-06-10T07:41:09;101708.03;;;17.70;68.60
17764;BME280;22245;52.832;13.816;2023-06-10T07:44:32;101699.63;;;17.73;68.62
17764;BME280;22245;52.832;13.816;2023-06-10T07:47:54;101702.72;;;17.78;68.84
17764;BME280;22245;52.832;13.816;2023-06-10T07:51:17;101699.41;;;17.85;69.14
17764;BME280;22245;52.832;13.816;2023-06-10T07:54:39;101700.78;;;17.89;69.21
17764;BME280;22245;52.832;13.816;2023-06-10T07:58:00;101695.09;;;17.92;68.97
17764;BME280;22245;52.832;13.816;2023-06-10T08:01:23;101697.28;;;17.97;69.84
17764;BME280;22245;52.832;13.816;2023-06-10T08:04:45;101695.88;;;18.02;70.70
17764;BME280;22245;52.832;13.816;2023-06-10T08:08:08;101712.59;;;18.06;71.17
17764;BME280;22245;52.832;13.816;2023-06-10T08:11:30;101708.72;;;18.08;72.54
17764;BME280;22245;52.832;13.816;2023-06-10T08:14:51;101723.19;;;18.07;73.63
17764;BME280;22245;52.832;13.816;2023-06-10T08:18:13;101707.50;;;18.03;73.84
17764;BME280;22245;52.832;13.816;2023-06-10T08:21:35;101709.63;;;17.99;74.36
17764;BME280;22245;52.832;13.816;2023-06-10T08:25:01;101713.31;;;17.98;76.60
17764;BME280;22245;52.832;13.816;2023-06-10T08:28:23;101727.25;;;17.93;77.36
17764;BME280;22245;52.832;13.816;2023-06-10T08:31:45;101727.56;;;17.90;77.80
17764;BME280;22245;52.832;13.816;2023-06-10T08:35:07;101728.56;;;17.89;78.34
17764;BME280;22245;52.832;13.816;2023-06-10T08:38:30;101719.97;;;17.86;79.17
17764;BME280;22245;52.832;13.816;2023-06-10T08:42:08;101708.81;;;17.81;79.20
17764;BME280;22245;52.832;13.816;2023-06-10T08:45:35;101699.88;;;17.80;80.19
17764;BME280;22245;52.832;13.816;2023-06-10T08:49:00;101726.13;;;17.78;80.74
17764;BME280;22245;52.832;13.816;2023-06-10T08:52:26;101738.66;;;17.69;79.94
17764;BME280;22245;52.832;13.816;2023-06-10T08:55:51;101727.50;;;17.64;80.50
17764;BME280;22245;52.832;13.816;2023-06-10T08:59:15;101753.06;;;17.60;80.76
17764;BME280;22245;52.832;13.816;2023-06-10T09:02:38;101726.13;;;17.60;81.62
17764;BME280;22245;52.832;13.816;2023-06-10T09:06:00;101735.75;;;17.62;81.51
17764;BME280;22245;52.832;13.816;2023-06-10T09:09:23;101721.13;;;17.65;82.27
17764;BME280;22245;52.832;13.816;2023-06-10T09:12:46;101739.34;;;17.71;83.83
17764;BME280;22245;52.832;13.816;2023-06-10T09:16:10;101731.66;;;17.76;82.72
17764;BME280;22245;52.832;13.816;2023-06-10T09:19:33;101734.03;;;17.79;83.37
17764;BME280;22245;52.832;13.816;2023-06-10T09:22:54;101734.59;;;17.83;83.81
17764;BME280;22245;52.832;13.816;2023-06-10T09:26:16;101730.25;;;17.90;84.31
17764;BME280;22245;52.832;13.816;2023-06-10T09:29:51;101732.03;;;18.00;83.98
17764;BME280;22245;52.832;13.816;2023-06-10T09:33:15;101733.66;;;18.11;84.51
17764;BME280;22245;52.832;13.816;2023-06-10T09:36:38;101736.94;;;18.22;85.23
17764;BME280;22245;52.832;13.816;2023-06-10T09:40:02;101730.59;;;18.32;84.00
17764;BME280;22245;52.832;13.816;2023-06-10T09:43:38;101728.66;;;18.42;84.50
17764;BME280;22245;52.832;13.816;2023-06-10T09:47:00;101728.53;;;18.52;84.93
17764;BME280;22245;52.832;13.816;2023-06-10T09:50:24;101730.31;;;18.61;85.67
17764;BME280;22245;52.832;13.816;2023-06-10T09:53:48;101724.94;;;18.70;85.09
17764;BME280;22245;52.832;13.816;2023-06-10T09:57:10;101730.03;;;18.81;84.47
17764;BME280;22245;52.832;13.816;2023-06-10T10:00:32;101733.47;;;18.91;85.21
17764;BME280;22245;52.832;13.816;2023-06-10T10:03:54;101732.53;;;19.01;84.77
17764;BME280;22245;52.832;13.816;2023-06-10T10:07:17;101723.28;;;19.12;85.73
17764;BME280;22245;52.832;13.816;2023-06-10T10:10:39;101715.56;;;19.25;84.85
17764;BME280;22245;52.832;13.816;2023-06-10T10:14:03;101719.63;;;19.37;84.02
17764;BME280;22245;52.832;13.816;2023-06-10T10:17:29;101730.66;;;19.52;84.16
17764;BME280;22245;52.832;13.816;2023-06-10T10:20:53;101729.31;;;19.65;85.21
17764;BME280;22245;52.832;13.816;2023-06-10T10:24:19;101732.53;;;19.77;83.97
17764;BME280;22245;52.832;13.816;2023-06-10T10:27:44;101728.34;;;19.91;82.17
17764;BME280;22245;52.832;13.816;2023-06-10T10:31:12;101726.63;;;20.06;82.61
17764;BME280;22245;52.832;13.816;2023-06-10T10:34:41;101720.72;;;20.19;82.70
17764;BME280;22245;52.832;13.816;2023-06-10T10:38:05;101720.84;;;20.34;83.22
17764;BME280;22245;52.832;13.816;2023-06-10T10:41:29;101714.75;;;20.49;84.18
17764;BME280;22245;52.832;13.816;2023-06-10T10:44:52;101706.94;;;20.62;84.08
17764;BME280;22245;52.832;13.816;2023-06-10T10:48:14;101708.91;;;20.77;82.26
17764;BME280;22245;52.832;13.816;2023-06-10T10:51:36;101708.22;;;20.91;80.97
17764;BME280;22245;52.832;13.816;2023-06-10T10:54:58;101701.00;;;21.07;81.19
17764;BME280;22245;52.832;13.816;2023-06-10T10:58:24;101702.13;;;21.21;79.91
17764;BME280;22245;52.832;13.816;2023-06-10T11:01:46;101698.63;;;21.35;73.70
17764;BME280;22245;52.832;13.816;2023-06-10T11:05:09;101696.50;;;21.54;69.07
17764;BME280;22245;52.832;13.816;2023-06-10T11:08:56;101701.28;;;21.75;63.98
17764;BME280;22245;52.832;13.816;2023-06-10T11:12:25;101694.66;;;21.93;64.84
17764;BME280;22245;52.832;13.816;2023-06-10T11:15:49;101691.44;;;22.12;65.97
17764;BME280;22245;52.832;13.816;2023-06-10T11:19:31;101694.81;;;22.30;63.86
17764;BME280;22245;52.832;13.816;2023-06-10T11:23:02;101700.25;;;22.45;61.74
17764;BME280;22245;52.832;13.816;2023-06-10T11:26:30;101690.66;;;22.57;60.78
17764;BME280;22245;52.832;13.816;2023-06-10T11:29:58;101691.84;;;22.69;59.37
17764;BME280;22245;52.832;13.816;2023-06-10T11:33:22;101693.06;;;22.82;60.98
17764;BME280;22245;52.832;13.816;2023-06-10T11:36:44;101688.16;;;22.92;59.83
17764;BME280;22245;52.832;13.816;2023-06-10T11:40:07;101681.84;;;23.07;58.62
17764;BME280;22245;52.832;13.816;2023-06-10T11:43:30;101677.63;;;23.19;59.89
17764;BME280;22245;52.832;13.816;2023-06-10T11:46:51;101668.41;;;23.35;59.32
17764;BME280;22245;52.832;13.816;2023-06-10T11:50:14;101662.22;;;23.48;58.56
17764;BME280;22245;52.832;13.816;2023-06-10T11:53:36;101657.50;;;23.57;56.84
17764;BME280;22245;52.832;13.816;2023-06-10T11:56:58;101665.81;;;23.70;57.94
17764;BME280;22245;52.832;13.816;2023-06-10T12:00:21;101653.13;;;23.84;55.81
17764;BME280;22245;52.832;13.816;2023-06-10T12:03:42;101649.88;;;23.96;55.38
17764;BME280;22245;52.832;13.816;2023-06-10T12:07:06;101645.59;;;24.08;54.40
17764;BME280;22245;52.832;13.816;2023-06-10T12:10:28;101649.19;;;24.16;54.84
17764;BME280;22245;52.832;13.816;2023-06-10T12:13:50;101645.28;;;24.25;53.99
17764;BME280;22245;52.832;13.816;2023-06-10T12:17:12;101635.06;;;24.34;52.21
17764;BME280;22245;52.832;13.816;2023-06-10T12:20:35;101628.19;;;24.45;51.64
17764;BME280;22245;52.832;13.816;2023-06-10T12:24:09;101633.69;;;24.58;51.42
17764;BME280;22245;52.832;13.816;2023-06-10T12:27:32;101630.00;;;24.73;49.97
17764;BME280;22245;52.832;13.816;2023-06-10T12:31:06;101620.03;;;24.87;50.22
17764;BME280;22245;52.832;13.816;2023-06-10T12:34:29;101616.88;;;24.96;50.45
17764;BME280;22245;52.832;13.816;2023-06-10T12:37:55;101617.75;;;25.10;49.99
17764;BME280;22245;52.832;13.816;2023-06-10T12:41:19;101643.16;;;25.24;47.88
17764;BME280;22245;52.832;13.816;2023-06-10T12:44:41;101634.75;;;25.33;49.25
17764;BME280;22245;52.832;13.816;2023-06-10T12:48:07;101643.34;;;25.29;50.69
17764;BME280;22245;52.832;13.816;2023-06-10T12:51:30;101648.38;;;25.19;53.29
17764;BME280;22245;52.832;13.816;2023-06-10T12:54:52;101647.28;;;25.00;49.28
17764;BME280;22245;52.832;13.816;2023-06-10T12:58:16;101650.59;;;24.82;48.84
17764;BME280;22245;52.832;13.816;2023-06-10T13:01:38;101656.78;;;24.69;50.13
17764;BME280;22245;52.832;13.816;2023-06-10T13:04:59;101650.03;;;24.58;50.96
17764;BME280;22245;52.832;13.816;2023-06-10T13:08:23;101646.66;;;24.49;51.26
17764;BME280;22245;52.832;13.816;2023-06-10T13:11:47;101635.28;;;24.39;50.63
17764;BME280;22245;52.832;13.816;2023-06-10T13:15:10;101650.97;;;24.30;51.39
17764;BME280;22245;52.832;13.816;2023-06-10T13:18:32;101627.25;;;24.24;52.06
17764;BME280;22245;52.832;13.816;2023-06-10T13:21:57;101624.06;;;24.13;50.65
17764;BME280;22245;52.832;13.816;2023-06-10T13:25:19;101622.16;;;24.07;51.01
17764;BME280;22245;52.832;13.816;2023-06-10T13:28:40;101614.84;;;24.08;52.74
17764;BME280;22245;52.832;13.816;2023-06-10T13:32:04;101610.22;;;24.08;52.67
17764;BME280;22245;52.832;13.816;2023-06-10T13:35:26;101600.81;;;24.11;54.04
17764;BME280;22245;52.832;13.816;2023-06-10T13:38:48;101602.28;;;24.13;54.25
17764;BME280;22245;52.832;13.816;2023-06-10T13:42:09;101587.88;;;24.20;53.74
17764;BME280;22245;52.832;13.816;2023-06-10T13:45:31;101590.22;;;24.30;53.69
17764;BME280;22245;52.832;13.816;2023-06-10T13:48:55;101589.25;;;24.44;53.28
17764;BME280;22245;52.832;13.816;2023-06-10T13:52:16;101581.31;;;24.56;52.33
17764;BME280;22245;52.832;13.816;2023-06-10T13:55:38;101575.94;;;24.69;52.54
17764;BME280;22245;52.832;13.816;2023-06-10T13:59:00;101570.53;;;24.83;51.69
17764;BME280;22245;52.832;13.816;2023-06-10T14:02:23;101572.47;;;24.96;50.29
17764;BME280;22245;52.832;13.816;2023-06-10T14:05:46;101576.47;;;25.07;48.00
17764;BME280;22245;52.832;13.816;2023-06-10T14:09:08;101571.44;;;25.17;47.58
17764;BME280;22245;52.832;13.816;2023-06-10T14:12:30;101575.84;;;25.25;48.08
17764;BME280;22245;52.832;13.816;2023-06-10T14:15:52;101572.25;;;25.38;47.09
17764;BME280;22245;52.832;13.816;2023-06-10T14:19:13;101571.88;;;25.48;45.57
17764;BME280;22245;52.832;13.816;2023-06-10T14:22:37;101563.69;;;25.61;45.13
17764;BME280;22245;52.832;13.816;2023-06-10T14:25:58;101568.06;;;25.76;45.37
17764;BME280;22245;52.832;13.816;2023-06-10T14:29:20;101563.44;;;25.90;44.79
17764;BME280;22245;52.832;13.816;2023-06-10T14:32:42;101562.56;;;26.03;42.60
17764;BME280;22245;52.832;13.816;2023-06-10T14:36:04;101553.53;;;26.15;43.93
17764;BME280;22245;52.832;13.816;2023-06-10T14:39:27;101557.88;;;26.30;44.00
17764;BME280;22245;52.832;13.816;2023-06-10T14:42:49;101561.13;;;26.46;43.20
17764;BME280;22245;52.832;13.816;2023-06-10T14:46:11;101553.94;;;26.58;41.21
17764;BME280;22245;52.832;13.816;2023-06-10T14:49:33;101558.88;;;26.75;41.98
17764;BME280;22245;52.832;13.816;2023-06-10T14:52:54;101562.00;;;26.85;40.97
17764;BME280;22245;52.832;13.816;2023-06-10T14:56:18;101559.81;;;27.00;40.10
17764;BME280;22245;52.832;13.816;2023-06-10T14:59:40;101555.28;;;27.13;39.12
17764;BME280;22245;52.832;13.816;2023-06-10T15:03:01;101550.94;;;27.30;39.46
17764;BME280;22245;52.832;13.816;2023-06-10T15:06:23;101549.94;;;27.50;36.91
17764;BME280;22245;52.832;13.816;2023-06-10T15:09:45;101550.88;;;27.63;37.70
17764;BME280;22245;52.832;13.816;2023-06-10T15:13:08;101551.81;;;27.75;36.69
17764;BME280;22245;52.832;13.816;2023-06-10T15:16:30;101552.25;;;27.91;37.50
17764;BME280;22245;52.832;13.816;2023-06-10T15:19:52;101552.88;;;28.11;36.33
17764;BME280;22245;52.832;13.816;2023-06-10T15:23:13;101550.75;;;28.32;36.68
17764;BME280;22245;52.832;13.816;2023-06-10T15:26:35;101540.72;;;28.56;36.71
17764;BME280;22245;52.832;13.816;2023-06-10T15:29:58;101554.66;;;28.85;36.44
17764;BME280;22245;52.832;13.816;2023-06-10T15:33:20;101544.81;;;28.96;35.48
17764;BME280;22245;52.832;13.816;2023-06-10T15:36:41;101537.53;;;29.02;36.94
17764;BME280;22245;52.832;13.816;2023-06-10T15:40:04;101539.09;;;29.10;36.26
17764;BME280;22245;52.832;13.816;2023-06-10T15:43:26;101543.28;;;29.12;34.49
17764;BME280;22245;52.832;13.816;2023-06-10T15:46:50;101544.34;;;29.11;32.21
17764;BME280;22245;52.832;13.816;2023-06-10T15:50:12;101537.06;;;29.05;30.23
17764;BME280;22245;52.832;13.816;2023-06-10T15:53:33;101539.69;;;29.00;32.54
17764;BME280;22245;52.832;13.816;2023-06-10T15:56:56;101540.00;;;28.92;29.29
17764;BME280;22245;52.832;13.816;2023-06-10T16:00:18;101535.59;;;28.91;28.69
17764;BME280;22245;52.832;13.816;2023-06-10T16:03:41;101535.00;;;28.88;28.26
17764;BME280;22245;52.832;13.816;2023-06-10T16:07:03;101542.75;;;28.92;29.38
17764;BME280;22245;52.832;13.816;2023-06-10T16:10:25;101532.63;;;28.92;27.58
17764;BME280;22245;52.832;13.816;2023-06-10T16:13:47;101535.97;;;28.94;27.99
17764;BME280;22245;52.832;13.816;2023-06-10T16:17:08;101545.75;;;28.90;26.93
17764;BME280;22245;52.832;13.816;2023-06-10T16:20:32;101544.06;;;28.89;27.28
17764;BME280;22245;52.832;13.816;2023-06-10T16:23:55;101542.41;;;28.88;28.40
17764;BME280;22245;52.832;13.816;2023-06-10T16:27:17;101539.19;;;28.91;27.46
17764;BME280;22245;52.832;13.816;2023-06-10T16:30:39;101538.72;;;28.94;26.69
17764;BME280;22245;52.832;13.816;2023-06-10T16:34:01;101538.84;;;28.99;28.33
17764;BME280;22245;52.832;13.816;2023-06-10T16:37:24;101543.13;;;28.95;28.07
17764;BME280;22245;52.832;13.816;2023-06-10T16:40:46;101543.59;;;28.92;29.32
17764;BME280;22245;52.832;13.816;2023-06-10T16:44:08;101537.75;;;28.88;29.02
17764;BME280;22245;52.832;13.816;2023-06-10T16:47:29;101541.34;;;28.89;29.33
17764;BME280;22245;52.832;13.816;2023-06-10T16:50:51;101548.47;;;28.90;29.10
17764;BME280;22245;52.832;13.816;2023-06-10T16:54:15;101552.19;;;28.96;29.76
17764;BME280;22245;52.832;13.816;2023-06-10T16:57:37;101561.16;;;29.03;30.00
17764;BME280;22245;52.832;13.816;2023-06-10T17:01:04;101558.88;;;29.12;30.23
17764;BME280;22245;52.832;13.816;2023-06-10T17:04:27;101553.56;;;29.17;29.77
17764;BME280;22245;52.832;13.816;2023-06-10T17:07:49;101562.50;;;29.24;29.73
17764;BME280;22245;52.832;13.816;2023-06-10T17:11:12;101565.59;;;29.28;29.60
17764;BME280;22245;52.832;13.816;2023-06-10T17:14:34;101568.69;;;29.31;30.09
17764;BME280;22245;52.832;13.816;2023-06-10T17:17:56;101563.22;;;29.31;30.46
17764;BME280;22245;52.832;13.816;2023-06-10T17:21:18;101575.97;;;29.26;30.51
17764;BME280;22245;52.832;13.816;2023-06-10T17:24:39;101575.63;;;29.22;30.32
17764;BME280;22245;52.832;13.816;2023-06-10T17:28:03;101580.59;;;29.13;30.59